sensor_id;sensor_type;location;lat;lon;timestamp;P1;durP1;ratioP1;P2;durP2;ratioP2
20170;SDS011;10245;51.344;6.620;2022-09-09T00:00:13;3.40;;;0.90;;
20170;SDS011;10245;51.344;6.620;2022-09-09T00:02:39;1.13;;;0.70;;
20170;SDS011;10245;51.344;6.620;2022-09-09T00:05:12;1.25;;;0.70;;
20170;SDS011;10245;51.344;6.620;2022-09-09T00:07:45;2.83;;;0.70;;
20170;SDS011;10245;51.344;6.620;2022-09-09T00:10:16;2.38;;;0.82;;
20170;SDS011;10245;51.344;6.620;2022-09-09T00:12:51;3.13;;;1.02;;
20170;SDS011;10245;51.344;6.620;2022-09-09T00:15:23;1.55;;;0.65;;
20170;SDS011;10245;51.344;6.620;2022-09-09T00:17:53;2.33;;;0.90;;
20170;SDS011;10245;51.344;6.620;2022-09-09T00:20:28;2.25;;;1.02;;
20170;SDS011;10245;51.344;6.620;2022-09-09T00:23:00;4.38;;;1.08;;
20170;SDS011;10245;51.344;6.620;2022-09-09T00:25:34;1.60;;;0.80;;
20170;SDS011;10245;51.344;6.620;2022-09-09T00:28:07;2.13;;;0.90;;
20170;SDS011;10245;51.344;6.620;2022-09-09T00:30:37;4.32;;;0.98;;
20170;SDS011;10245;51.344;6.620;2022-09-09T00:33:08;1.27;;;0.90;;
20170;SDS011;10245;51.344;6.620;2022-09-09T00:35:37;3.10;;;1.08;;
20170;SDS011;10245;51.344;6.620;2022-09-09T00:38:05;1.65;;;0.80;;
20170;SDS011;10245;51.344;6.620;2022-09-09T00:40:37;4.10;;;1.15;;
20170;SDS011;10245;51.344;6.620;2022-09-09T00:43:12;1.90;;;0.90;;
20170;SDS011;10245;51.344;6.620;2022-09-09T00:46:05;2.15;;;1.00;;
20170;SDS011;10245;51.344;6.620;2022-09-09T00:48:47;3.17;;;1.17;;
20170;SDS011;10245;51.344;6.620;2022-09-09T00:51:22;6.00;;;1.15;;
20170;SDS011;10245;51.344;6.620;2022-09-09T00:54:00;2.80;;;1.02;;
20170;SDS011;10245;51.344;6.620;2022-09-09T00:56:38;1.75;;;0.82;;
20170;SDS011;10245;51.344;6.620;2022-09-09T00:59:12;3.47;;;1.08;;
20170;SDS011;10245;51.344;6.620;2022-09-09T01:01:50;3.53;;;1.13;;
20170;SDS011;10245;51.344;6.620;2022-09-09T01:04:16;2.17;;;1.10;;
20170;SDS011;10245;51.344;6.620;2022-09-09T01:06:46;5.53;;;1.27;;
20170;SDS011;10245;51.344;6.620;2022-09-09T01:09:16;2.08;;;1.35;;
20170;SDS011;10245;51.344;6.620;2022-09-09T01:11:50;2.15;;;1.67;;
20170;SDS011;10245;51.344;6.620;2022-09-09T01:14:30;1.85;;;1.55;;
20170;SDS011;10245;51.344;6.620;2022-09-09T01:17:13;4.60;;;1.90;;
20170;SDS011;10245;51.344;6.620;2022-09-09T01:19:52;7.45;;;1.83;;
20170;SDS011;10245;51.344;6.620;2022-09-09T01:22:35;5.07;;;1.75;;
20170;SDS011;10245;51.344;6.620;2022-09-09T01:25:18;2.90;;;2.30;;
20170;SDS011;10245;51.344;6.620;2022-09-09T01:28:02;2.53;;;2.00;;
20170;SDS011;10245;51.344;6.620;2022-09-09T01:30:31;3.20;;;2.50;;
20170;SDS011;10245;51.344;6.620;2022-09-09T01:33:02;4.00;;;3.60;;
20170;SDS011;10245;51.344;6.620;2022-09-09T01:35:32;4.07;;;3.63;;
20170;SDS011;10245;51.344;6.620;2022-09-09T01:38:04;4.70;;;4.30;;
20170;SDS011;10245;51.344;6.620;2022-09-09T01:40:28;4.63;;;3.97;;
20170;SDS011;10245;51.344;6.620;2022-09-09T01:42:52;5.50;;;3.90;;
20170;SDS011;10245;51.344;6.620;2022-09-09T01:45:17;4.72;;;3.72;;
20170;SDS011;10245;51.344;6.620;2022-09-09T01:47:40;4.93;;;3.70;;
20170;SDS011;10245;51.344;6.620;2022-09-09T01:50:12;3.33;;;2.90;;
20170;SDS011;10245;51.344;6.620;2022-09-09T01:52:38;3.75;;;3.20;;
20170;SDS011;10245;51.344;6.620;2022-09-09T01:55:06;3.88;;;2.25;;
20170;SDS011;10245;51.344;6.620;2022-09-09T01:57:33;3.65;;;2.40;;
20170;SDS011;10245;51.344;6.620;2022-09-09T02:00:10;4.88;;;2.20;;
20170;SDS011;10245;51.344;6.620;2022-09-09T02:02:38;4.15;;;1.80;;
20170;SDS011;10245;51.344;6.620;2022-09-09T02:05:20;2.60;;;1.95;;
20170;SDS011;10245;51.344;6.620;2022-09-09T02:07:55;2.95;;;1.45;;
20170;SDS011;10245;51.344;6.620;2022-09-09T02:10:36;2.72;;;1.10;;
20170;SDS011;10245;51.344;6.620;2022-09-09T02:13:13;2.50;;;1.30;;
20170;SDS011;10245;51.344;6.620;2022-09-09T02:15:42;3.75;;;1.27;;
20170;SDS011;10245;51.344;6.620;2022-09-09T02:18:16;4.55;;;1.50;;
20170;SDS011;10245;51.344;6.620;2022-09-09T02:20:47;2.00;;;1.08;;
20170;SDS011;10245;51.344;6.620;2022-09-09T02:23:10;2.20;;;1.10;;
20170;SDS011;10245;51.344;6.620;2022-09-09T02:25:36;2.97;;;1.17;;
20170;SDS011;10245;51.344;6.620;2022-09-09T02:28:11;3.38;;;1.10;;
20170;SDS011;10245;51.344;6.620;2022-09-09T02:30:38;2.67;;;1.08;;
20170;SDS011;10245;51.344;6.620;2022-09-09T02:33:04;4.07;;;1.13;;
20170;SDS011;10245;51.344;6.620;2022-09-09T02:35:38;2.92;;;1.15;;
20170;SDS011;10245;51.344;6.620;2022-09-09T02:38:06;2.10;;;1.05;;
20170;SDS011;10245;51.344;6.620;2022-09-09T02:40:37;2.30;;;0.93;;
20170;SDS011;10245;51.344;6.620;2022-09-09T02:43:01;4.70;;;1.20;;
20170;SDS011;10245;51.344;6.620;2022-09-09T02:45:27;5.03;;;1.48;;
20170;SDS011;10245;51.344;6.620;2022-09-09T02:48:00;1.90;;;1.08;;
20170;SDS011;10245;51.344;6.620;2022-09-09T02:50:33;3.83;;;1.30;;
20170;SDS011;10245;51.344;6.620;2022-09-09T02:53:05;3.08;;;1.38;;
20170;SDS011;10245;51.344;6.620;2022-09-09T02:55:41;4.68;;;1.33;;
20170;SDS011;10245;51.344;6.620;2022-09-09T02:58:12;3.47;;;1.20;;
20170;SDS011;10245;51.344;6.620;2022-09-09T03:00:48;3.75;;;1.20;;
20170;SDS011;10245;51.344;6.620;2022-09-09T03:03:14;3.58;;;1.33;;
20170;SDS011;10245;51.344;6.620;2022-09-09T03:05:40;4.57;;;1.40;;
20170;SDS011;10245;51.344;6.620;2022-09-09T03:08:07;6.40;;;1.60;;
20170;SDS011;10245;51.344;6.620;2022-09-09T03:10:30;4.40;;;1.10;;
20170;SDS011;10245;51.344;6.620;2022-09-09T03:12:54;3.40;;;1.50;;
20170;SDS011;10245;51.344;6.620;2022-09-09T03:15:20;3.08;;;1.27;;
20170;SDS011;10245;51.344;6.620;2022-09-09T03:17:43;3.58;;;1.60;;
20170;SDS011;10245;51.344;6.620;2022-09-09T03:20:07;2.88;;;1.42;;
20170;SDS011;10245;51.344;6.620;2022-09-09T03:22:32;4.15;;;1.50;;
20170;SDS011;10245;51.344;6.620;2022-09-09T03:24:56;5.15;;;1.40;;
20170;SDS011;10245;51.344;6.620;2022-09-09T03:27:22;2.70;;;1.33;;
20170;SDS011;10245;51.344;6.620;2022-09-09T03:29:46;4.15;;;1.27;;
20170;SDS011;10245;51.344;6.620;2022-09-09T03:32:16;3.75;;;1.48;;
20170;SDS011;10245;51.344;6.620;2022-09-09T03:34:40;4.35;;;1.60;;
20170;SDS011;10245;51.344;6.620;2022-09-09T03:37:06;5.00;;;1.60;;
20170;SDS011;10245;51.344;6.620;2022-09-09T03:39:30;4.05;;;1.38;;
20170;SDS011;10245;51.344;6.620;2022-09-09T03:41:55;4.75;;;1.50;;
20170;SDS011;10245;51.344;6.620;2022-09-09T03:44:18;5.00;;;1.75;;
20170;SDS011;10245;51.344;6.620;2022-09-09T03:46:42;6.43;;;1.50;;
20170;SDS011;10245;51.344;6.620;2022-09-09T03:49:05;6.50;;;1.60;;
20170;SDS011;10245;51.344;6.620;2022-09-09T03:51:28;4.20;;;1.77;;
20170;SDS011;10245;51.344;6.620;2022-09-09T03:53:52;7.20;;;1.77;;
20170;SDS011;10245;51.344;6.620;2022-09-09T03:56:16;3.00;;;1.30;;
20170;SDS011;10245;51.344;6.620;2022-09-09T03:58:41;5.75;;;1.50;;
20170;SDS011;10245;51.344;6.620;2022-09-09T04:01:07;4.72;;;1.42;;
20170;SDS011;10245;51.344;6.620;2022-09-09T04:03:36;4.57;;;1.60;;
20170;SDS011;10245;51.344;6.620;2022-09-09T04:05:59;3.88;;;1.50;;
20170;SDS011;10245;51.344;6.620;2022-09-09T04:08:28;7.70;;;2.08;;
20170;SDS011;10245;51.344;6.620;2022-09-09T04:10:53;5.18;;;1.73;;
20170;SDS011;10245;51.344;6.620;2022-09-09T04:13:20;6.38;;;1.60;;
20170;SDS011;10245;51.344;6.620;2022-09-09T04:15:48;4.25;;;1.60;;
20170;SDS011;10245;51.344;6.620;2022-09-09T04:18:13;5.72;;;1.85;;
20170;SDS011;10245;51.344;6.620;2022-09-09T04:20:41;4.63;;;1.38;;
20170;SDS011;10245;51.344;6.620;2022-09-09T04:23:05;5.20;;;1.67;;
20170;SDS011;10245;51.344;6.620;2022-09-09T04:25:28;5.43;;;2.05;;
20170;SDS011;10245;51.344;6.620;2022-09-09T04:27:53;4.75;;;1.80;;
20170;SDS011;10245;51.344;6.620;2022-09-09T04:30:16;7.40;;;2.08;;
20170;SDS011;10245;51.344;6.620;2022-09-09T04:32:41;6.53;;;2.00;;
20170;SDS011;10245;51.344;6.620;2022-09-09T04:35:04;5.38;;;1.77;;
20170;SDS011;10245;51.344;6.620;2022-09-09T04:37:29;4.13;;;1.73;;
20170;SDS011;10245;51.344;6.620;2022-09-09T04:39:53;5.35;;;1.67;;
20170;SDS011;10245;51.344;6.620;2022-09-09T04:42:16;4.78;;;1.80;;
20170;SDS011;10245;51.344;6.620;2022-09-09T04:44:41;6.00;;;2.15;;
20170;SDS011;10245;51.344;6.620;2022-09-09T04:47:05;6.30;;;1.80;;
20170;SDS011;10245;51.344;6.620;2022-09-09T04:49:29;6.35;;;1.63;;
20170;SDS011;10245;51.344;6.620;2022-09-09T04:51:53;5.53;;;1.65;;
20170;SDS011;10245;51.344;6.620;2022-09-09T04:54:17;4.40;;;1.70;;
20170;SDS011;10245;51.344;6.620;2022-09-09T04:56:41;5.97;;;1.70;;
20170;SDS011;10245;51.344;6.620;2022-09-09T04:59:05;6.85;;;2.03;;
20170;SDS011;10245;51.344;6.620;2022-09-09T05:01:37;3.45;;;1.80;;
20170;SDS011;10245;51.344;6.620;2022-09-09T05:04:04;7.55;;;1.90;;
20170;SDS011;10245;51.344;6.620;2022-09-09T05:06:29;5.43;;;1.77;;
20170;SDS011;10245;51.344;6.620;2022-09-09T05:08:54;7.22;;;1.60;;
20170;SDS011;10245;51.344;6.620;2022-09-09T05:11:22;5.35;;;2.10;;
20170;SDS011;10245;51.344;6.620;2022-09-09T05:13:52;6.75;;;2.08;;
20170;SDS011;10245;51.344;6.620;2022-09-09T05:16:17;7.50;;;2.30;;
20170;SDS011;10245;51.344;6.620;2022-09-09T05:18:42;8.23;;;1.80;;
20170;SDS011;10245;51.344;6.620;2022-09-09T05:21:07;5.15;;;1.83;;
20170;SDS011;10245;51.344;6.620;2022-09-09T05:23:35;9.02;;;1.92;;
20170;SDS011;10245;51.344;6.620;2022-09-09T05:25:59;11.00;;;2.70;;
20170;SDS011;10245;51.344;6.620;2022-09-09T05:28:24;7.70;;;2.20;;
20170;SDS011;10245;51.344;6.620;2022-09-09T05:30:54;8.45;;;2.05;;
20170;SDS011;10245;51.344;6.620;2022-09-09T05:33:23;7.25;;;2.20;;
20170;SDS011;10245;51.344;6.620;2022-09-09T05:35:46;4.90;;;1.98;;
20170;SDS011;10245;51.344;6.620;2022-09-09T05:38:10;5.60;;;1.80;;
20170;SDS011;10245;51.344;6.620;2022-09-09T05:40:37;8.73;;;2.40;;
20170;SDS011;10245;51.344;6.620;2022-09-09T05:43:04;6.35;;;2.38;;
20170;SDS011;10245;51.344;6.620;2022-09-09T05:45:30;6.03;;;2.10;;
20170;SDS011;10245;51.344;6.620;2022-09-09T05:47:54;6.05;;;2.20;;
20170;SDS011;10245;51.344;6.620;2022-09-09T05:50:18;5.38;;;2.03;;
20170;SDS011;10245;51.344;6.620;2022-09-09T05:52:44;6.53;;;2.13;;
20170;SDS011;10245;51.344;6.620;2022-09-09T05:55:09;5.35;;;2.03;;
20170;SDS011;10245;51.344;6.620;2022-09-09T05:57:33;5.10;;;2.25;;
20170;SDS011;10245;51.344;6.620;2022-09-09T05:59:57;6.43;;;2.10;;
20170;SDS011;10245;51.344;6.620;2022-09-09T06:02:21;5.07;;;2.08;;
20170;SDS011;10245;51.344;6.620;2022-09-09T06:04:45;8.55;;;2.22;;
20170;SDS011;10245;51.344;6.620;2022-09-09T06:07:08;6.15;;;2.35;;
20170;SDS011;10245;51.344;6.620;2022-09-09T06:09:32;4.70;;;1.83;;
20170;SDS011;10245;51.344;6.620;2022-09-09T06:11:55;8.13;;;2.47;;
20170;SDS011;10245;51.344;6.620;2022-09-09T06:14:21;8.18;;;2.50;;
20170;SDS011;10245;51.344;6.620;2022-09-09T06:16:46;5.80;;;2.00;;
20170;SDS011;10245;51.344;6.620;2022-09-09T06:19:17;9.65;;;2.47;;
20170;SDS011;10245;51.344;6.620;2022-09-09T06:21:42;7.97;;;2.50;;
20170;SDS011;10245;51.344;6.620;2022-09-09T06:24:06;8.48;;;2.20;;
20170;SDS011;10245;51.344;6.620;2022-09-09T06:26:30;9.38;;;2.35;;
20170;SDS011;10245;51.344;6.620;2022-09-09T06:28:56;10.57;;;2.22;;
20170;SDS011;10245;51.344;6.620;2022-09-09T06:31:23;4.95;;;2.20;;
20170;SDS011;10245;51.344;6.620;2022-09-09T06:33:56;9.30;;;2.53;;
20170;SDS011;10245;51.344;6.620;2022-09-09T06:36:21;7.07;;;2.38;;
20170;SDS011;10245;51.344;6.620;2022-09-09T06:38:46;9.02;;;2.88;;
20170;SDS011;10245;51.344;6.620;2022-09-09T06:41:10;6.47;;;2.20;;
20170;SDS011;10245;51.344;6.620;2022-09-09T06:43:37;7.38;;;2.33;;
20170;SDS011;10245;51.344;6.620;2022-09-09T06:46:01;8.20;;;2.22;;
20170;SDS011;10245;51.344;6.620;2022-09-09T06:48:31;7.50;;;2.33;;
20170;SDS011;10245;51.344;6.620;2022-09-09T06:51:02;3.67;;;1.83;;
20170;SDS011;10245;51.344;6.620;2022-09-09T06:53:27;7.75;;;2.20;;
20170;SDS011;10245;51.344;6.620;2022-09-09T06:55:51;10.98;;;2.10;;
20170;SDS011;10245;51.344;6.620;2022-09-09T06:58:16;7.72;;;2.00;;
20170;SDS011;10245;51.344;6.620;2022-09-09T07:00:40;10.43;;;2.00;;
20170;SDS011;10245;51.344;6.620;2022-09-09T07:05:37;7.55;;;1.90;;
20170;SDS011;10245;51.344;6.620;2022-09-09T07:08:02;6.18;;;1.80;;
20170;SDS011;10245;51.344;6.620;2022-09-09T07:10:26;5.90;;;1.90;;
20170;SDS011;10245;51.344;6.620;2022-09-09T07:12:50;9.32;;;1.92;;
20170;SDS011;10245;51.344;6.620;2022-09-09T07:15:16;8.30;;;1.80;;
20170;SDS011;10245;51.344;6.620;2022-09-09T07:17:40;5.70;;;1.67;;
20170;SDS011;10245;51.344;6.620;2022-09-09T07:20:04;6.05;;;2.00;;
20170;SDS011;10245;51.344;6.620;2022-09-09T07:22:29;7.55;;;1.95;;
20170;SDS011;10245;51.344;6.620;2022-09-09T07:24:53;8.30;;;2.15;;
20170;SDS011;10245;51.344;6.620;2022-09-09T07:27:17;6.97;;;2.13;;
20170;SDS011;10245;51.344;6.620;2022-09-09T07:29:42;7.50;;;2.00;;
20170;SDS011;10245;51.344;6.620;2022-09-09T07:32:07;7.60;;;1.95;;
20170;SDS011;10245;51.344;6.620;2022-09-09T07:34:31;7.22;;;2.00;;
20170;SDS011;10245;51.344;6.620;2022-09-09T07:36:56;7.88;;;1.83;;
20170;SDS011;10245;51.344;6.620;2022-09-09T07:39:21;6.53;;;1.60;;
20170;SDS011;10245;51.344;6.620;2022-09-09T07:41:47;5.95;;;2.10;;
20170;SDS011;10245;51.344;6.620;2022-09-09T07:44:16;5.25;;;1.85;;
20170;SDS011;10245;51.344;6.620;2022-09-09T07:46:45;6.68;;;1.95;;
20170;SDS011;10245;51.344;6.620;2022-09-09T07:49:14;9.65;;;2.15;;
20170;SDS011;10245;51.344;6.620;2022-09-09T07:51:38;6.68;;;2.10;;
20170;SDS011;10245;51.344;6.620;2022-09-09T07:54:05;5.45;;;1.50;;
20170;SDS011;10245;51.344;6.620;2022-09-09T07:56:35;10.13;;;2.03;;
20170;SDS011;10245;51.344;6.620;2022-09-09T07:59:01;7.60;;;2.03;;
20170;SDS011;10245;51.344;6.620;2022-09-09T08:01:27;8.63;;;1.90;;
20170;SDS011;10245;51.344;6.620;2022-09-09T08:04:02;4.32;;;1.30;;
20170;SDS011;10245;51.344;6.620;2022-09-09T08:06:29;6.03;;;1.73;;
20170;SDS011;10245;51.344;6.620;2022-09-09T08:08:54;5.25;;;1.85;;
20170;SDS011;10245;51.344;6.620;2022-09-09T08:11:19;5.47;;;1.67;;
20170;SDS011;10245;51.344;6.620;2022-09-09T08:13:45;5.30;;;1.63;;
20170;SDS011;10245;51.344;6.620;2022-09-09T08:16:15;6.88;;;1.83;;
20170;SDS011;10245;51.344;6.620;2022-09-09T08:18:43;5.05;;;1.55;;
20170;SDS011;10245;51.344;6.620;2022-09-09T08:21:08;6.43;;;1.88;;
20170;SDS011;10245;51.344;6.620;2022-09-09T08:23:34;4.93;;;1.50;;
20170;SDS011;10245;51.344;6.620;2022-09-09T08:26:02;4.50;;;1.55;;
20170;SDS011;10245;51.344;6.620;2022-09-09T08:28:27;9.38;;;1.88;;
20170;SDS011;10245;51.344;6.620;2022-09-09T08:30:53;6.65;;;2.25;;
20170;SDS011;10245;51.344;6.620;2022-09-09T08:33:17;6.07;;;1.95;;
20170;SDS011;10245;51.344;6.620;2022-09-09T08:35:49;4.10;;;1.58;;
20170;SDS011;10245;51.344;6.620;2022-09-09T08:38:14;7.78;;;1.70;;
20170;SDS011;10245;51.344;6.620;2022-09-09T08:40:38;8.77;;;1.88;;
20170;SDS011;10245;51.344;6.620;2022-09-09T08:43:08;3.28;;;1.38;;
20170;SDS011;10245;51.344;6.620;2022-09-09T08:45:33;7.65;;;1.63;;
20170;SDS011;10245;51.344;6.620;2022-09-09T08:48:06;6.15;;;1.60;;
20170;SDS011;10245;51.344;6.620;2022-09-09T08:50:42;7.88;;;1.80;;
20170;SDS011;10245;51.344;6.620;2022-09-09T08:53:14;5.25;;;1.58;;
20170;SDS011;10245;51.344;6.620;2022-09-09T08:55:45;6.65;;;1.73;;
20170;SDS011;10245;51.344;6.620;2022-09-09T08:58:15;5.50;;;1.70;;
20170;SDS011;10245;51.344;6.620;2022-09-09T09:00:51;9.60;;;1.88;;
20170;SDS011;10245;51.344;6.620;2022-09-09T09:03:48;7.88;;;1.67;;
20170;SDS011;10245;51.344;6.620;2022-09-09T09:06:23;5.50;;;1.70;;
20170;SDS011;10245;51.344;6.620;2022-09-09T09:09:05;9.40;;;2.03;;
20170;SDS011;10245;51.344;6.620;2022-09-09T09:11:36;3.80;;;1.42;;
20170;SDS011;10245;51.344;6.620;2022-09-09T09:14:04;5.43;;;1.75;;
20170;SDS011;10245;51.344;6.620;2022-09-09T09:16:38;8.98;;;1.63;;
20170;SDS011;10245;51.344;6.620;2022-09-09T09:19:12;4.07;;;1.60;;
20170;SDS011;10245;51.344;6.620;2022-09-09T09:21:39;3.83;;;1.40;;
20170;SDS011;10245;51.344;6.620;2022-09-09T09:24:11;7.18;;;1.70;;
20170;SDS011;10245;51.344;6.620;2022-09-09T09:26:42;7.05;;;1.45;;
20170;SDS011;10245;51.344;6.620;2022-09-09T09:29:08;5.20;;;1.50;;
20170;SDS011;10245;51.344;6.620;2022-09-09T09:31:36;7.03;;;1.70;;
20170;SDS011;10245;51.344;6.620;2022-09-09T09:33:59;6.97;;;1.63;;
20170;SDS011;10245;51.344;6.620;2022-09-09T09:36:33;3.80;;;1.30;;
20170;SDS011;10245;51.344;6.620;2022-09-09T09:39:05;5.30;;;1.55;;
20170;SDS011;10245;51.344;6.620;2022-09-09T09:41:51;3.25;;;1.27;;
20170;SDS011;10245;51.344;6.620;2022-09-09T09:44:22;8.07;;;1.75;;
20170;SDS011;10245;51.344;6.620;2022-09-09T09:46:49;5.63;;;1.27;;
20170;SDS011;10245;51.344;6.620;2022-09-09T09:49:12;3.60;;;1.20;;
20170;SDS011;10245;51.344;6.620;2022-09-09T09:51:38;5.80;;;1.55;;
20170;SDS011;10245;51.344;6.620;2022-09-09T09:54:03;4.93;;;1.40;;
20170;SDS011;10245;51.344;6.620;2022-09-09T09:56:42;6.82;;;1.52;;
20170;SDS011;10245;51.344;6.620;2022-09-09T09:59:18;8.00;;;1.70;;
20170;SDS011;10245;51.344;6.620;2022-09-09T10:02:17;3.38;;;1.40;;
20170;SDS011;10245;51.344;6.620;2022-09-09T10:05:00;5.72;;;1.50;;
20170;SDS011;10245;51.344;6.620;2022-09-09T10:07:29;4.78;;;1.30;;
20170;SDS011;10245;51.344;6.620;2022-09-09T10:09:55;3.75;;;1.30;;
20170;SDS011;10245;51.344;6.620;2022-09-09T10:12:23;4.57;;;1.13;;
20170;SDS011;10245;51.344;6.620;2022-09-09T10:14:57;3.83;;;1.10;;
20170;SDS011;10245;51.344;6.620;2022-09-09T10:17:29;1.25;;;0.98;;
20170;SDS011;10245;51.344;6.620;2022-09-09T10:20:04;3.80;;;1.02;;
20170;SDS011;10245;51.344;6.620;2022-09-09T10:22:47;4.32;;;1.13;;
20170;SDS011;10245;51.344;6.620;2022-09-09T10:25:17;4.78;;;1.35;;
20170;SDS011;10245;51.344;6.620;2022-09-09T10:28:23;3.42;;;1.30;;
20170;SDS011;10245;51.344;6.620;2022-09-09T10:31:02;3.80;;;1.27;;
20170;SDS011;10245;51.344;6.620;2022-09-09T10:33:41;5.60;;;1.58;;
20170;SDS011;10245;51.344;6.620;2022-09-09T10:36:15;5.28;;;1.50;;
20170;SDS011;10245;51.344;6.620;2022-09-09T10:38:45;3.20;;;1.38;;
20170;SDS011;10245;51.344;6.620;2022-09-09T10:41:12;6.82;;;1.48;;
20170;SDS011;10245;51.344;6.620;2022-09-09T10:43:46;3.97;;;1.35;;
20170;SDS011;10245;51.344;6.620;2022-09-09T10:46:44;4.95;;;1.73;;
20170;SDS011;10245;51.344;6.620;2022-09-09T10:49:19;4.20;;;1.15;;
20170;SDS011;10245;51.344;6.620;2022-09-09T10:51:54;3.75;;;1.52;;
20170;SDS011;10245;51.344;6.620;2022-09-09T10:54:32;5.13;;;1.48;;
20170;SDS011;10245;51.344;6.620;2022-09-09T10:57:08;5.70;;;1.35;;
20170;SDS011;10245;51.344;6.620;2022-09-09T10:59:36;5.25;;;1.38;;
20170;SDS011;10245;51.344;6.620;2022-09-09T11:02:05;4.03;;;1.40;;
20170;SDS011;10245;51.344;6.620;2022-09-09T11:04:38;5.30;;;1.27;;
20170;SDS011;10245;51.344;6.620;2022-09-09T11:07:06;2.38;;;1.13;;
20170;SDS011;10245;51.344;6.620;2022-09-09T11:09:36;3.95;;;1.38;;
20170;SDS011;10245;51.344;6.620;2022-09-09T11:12:05;2.53;;;1.20;;
20170;SDS011;10245;51.344;6.620;2022-09-09T11:14:36;4.55;;;1.10;;
20170;SDS011;10245;51.344;6.620;2022-09-09T11:17:06;3.33;;;1.17;;
20170;SDS011;10245;51.344;6.620;2022-09-09T11:19:35;5.00;;;1.13;;
20170;SDS011;10245;51.344;6.620;2022-09-09T11:22:02;3.83;;;1.30;;
20170;SDS011;10245;51.344;6.620;2022-09-09T11:24:31;4.30;;;1.38;;
20170;SDS011;10245;51.344;6.620;2022-09-09T11:27:02;3.75;;;1.42;;
20170;SDS011;10245;51.344;6.620;2022-09-09T11:29:40;7.80;;;1.50;;
20170;SDS011;10245;51.344;6.620;2022-09-09T11:32:34;3.70;;;1.10;;
20170;SDS011;10245;51.344;6.620;2022-09-09T11:35:30;3.13;;;1.27;;
20170;SDS011;10245;51.344;6.620;2022-09-09T11:38:05;6.72;;;1.45;;
20170;SDS011;10245;51.344;6.620;2022-09-09T11:40:41;1.80;;;0.90;;
20170;SDS011;10245;51.344;6.620;2022-09-09T11:43:05;5.63;;;1.15;;
20170;SDS011;10245;51.344;6.620;2022-09-09T11:45:35;4.03;;;1.10;;
20170;SDS011;10245;51.344;6.620;2022-09-09T11:47:59;3.83;;;1.13;;
20170;SDS011;10245;51.344;6.620;2022-09-09T11:50:29;5.05;;;1.27;;
20170;SDS011;10245;51.344;6.620;2022-09-09T11:53:18;2.55;;;0.95;;
20170;SDS011;10245;51.344;6.620;2022-09-09T11:55:46;5.60;;;1.27;;
20170;SDS011;10245;51.344;6.620;2022-09-09T11:58:15;2.25;;;0.90;;
20170;SDS011;10245;51.344;6.620;2022-09-09T12:00:42;3.15;;;0.90;;
20170;SDS011;10245;51.344;6.620;2022-09-09T12:03:08;3.67;;;1.00;;
20170;SDS011;10245;51.344;6.620;2022-09-09T12:05:58;2.45;;;1.10;;
20170;SDS011;10245;51.344;6.620;2022-09-09T12:08:25;4.97;;;1.10;;
20170;SDS011;10245;51.344;6.620;2022-09-09T12:10:54;3.70;;;1.10;;
20170;SDS011;10245;51.344;6.620;2022-09-09T12:13:22;5.03;;;0.98;;
20170;SDS011;10245;51.344;6.620;2022-09-09T12:15:48;2.83;;;1.10;;
20170;SDS011;10245;51.344;6.620;2022-09-09T12:18:14;4.32;;;1.00;;
20170;SDS011;10245;51.344;6.620;2022-09-09T12:20:50;3.30;;;1.00;;
20170;SDS011;10245;51.344;6.620;2022-09-09T12:23:22;3.35;;;1.08;;
20170;SDS011;10245;51.344;6.620;2022-09-09T12:25:59;2.17;;;0.88;;
20170;SDS011;10245;51.344;6.620;2022-09-09T12:28:47;3.95;;;1.17;;
20170;SDS011;10245;51.344;6.620;2022-09-09T12:31:22;4.15;;;1.42;;
20170;SDS011;10245;51.344;6.620;2022-09-09T12:33:53;4.82;;;1.50;;
20170;SDS011;10245;51.344;6.620;2022-09-09T12:36:18;2.88;;;1.40;;
20170;SDS011;10245;51.344;6.620;2022-09-09T12:38:44;3.45;;;1.30;;
20170;SDS011;10245;51.344;6.620;2022-09-09T12:41:19;4.00;;;1.30;;
20170;SDS011;10245;51.344;6.620;2022-09-09T12:43:45;5.07;;;0.93;;
20170;SDS011;10245;51.344;6.620;2022-09-09T12:46:09;4.53;;;1.55;;
20170;SDS011;10245;51.344;6.620;2022-09-09T12:48:44;4.28;;;1.10;;
20170;SDS011;10245;51.344;6.620;2022-09-09T12:51:16;7.60;;;1.45;;
20170;SDS011;10245;51.344;6.620;2022-09-09T12:53:42;4.85;;;1.63;;
20170;SDS011;10245;51.344;6.620;2022-09-09T12:56:08;4.18;;;1.63;;
20170;SDS011;10245;51.344;6.620;2022-09-09T12:58:45;4.18;;;1.52;;
20170;SDS011;10245;51.344;6.620;2022-09-09T13:01:17;4.60;;;1.40;;
20170;SDS011;10245;51.344;6.620;2022-09-09T13:03:45;6.03;;;1.67;;
20170;SDS011;10245;51.344;6.620;2022-09-09T13:06:13;2.72;;;1.63;;
20170;SDS011;10245;51.344;6.620;2022-09-09T13:08:49;4.05;;;1.40;;
20170;SDS011;10245;51.344;6.620;2022-09-09T13:11:14;4.22;;;1.60;;
20170;SDS011;10245;51.344;6.620;2022-09-09T13:13:43;3.75;;;1.20;;
20170;SDS011;10245;51.344;6.620;2022-09-09T13:16:18;3.15;;;1.20;;
20170;SDS011;10245;51.344;6.620;2022-09-09T13:18:45;3.67;;;1.23;;
20170;SDS011;10245;51.344;6.620;2022-09-09T13:21:08;3.78;;;1.30;;
20170;SDS011;10245;51.344;6.620;2022-09-09T13:23:33;2.20;;;1.30;;
20170;SDS011;10245;51.344;6.620;2022-09-09T13:26:00;6.07;;;1.60;;
20170;SDS011;10245;51.344;6.620;2022-09-09T13:28:27;2.90;;;1.10;;
20170;SDS011;10245;51.344;6.620;2022-09-09T13:30:58;2.78;;;1.17;;
20170;SDS011;10245;51.344;6.620;2022-09-09T13:33:28;3.67;;;1.30;;
20170;SDS011;10245;51.344;6.620;2022-09-09T13:35:55;4.78;;;1.40;;
20170;SDS011;10245;51.344;6.620;2022-09-09T13:38:20;3.78;;;1.17;;
20170;SDS011;10245;51.344;6.620;2022-09-09T13:40:52;2.60;;;1.15;;
20170;SDS011;10245;51.344;6.620;2022-09-09T13:43:21;4.55;;;1.17;;
20170;SDS011;10245;51.344;6.620;2022-09-09T13:45:53;4.40;;;1.30;;
20170;SDS011;10245;51.344;6.620;2022-09-09T13:48:22;3.35;;;1.65;;
20170;SDS011;10245;51.344;6.620;2022-09-09T13:50:53;4.13;;;1.33;;
20170;SDS011;10245;51.344;6.620;2022-09-09T13:53:18;4.97;;;1.50;;
20170;SDS011;10245;51.344;6.620;2022-09-09T13:55:41;3.88;;;1.25;;
20170;SDS011;10245;51.344;6.620;2022-09-09T13:58:14;5.10;;;1.30;;
20170;SDS011;10245;51.344;6.620;2022-09-09T14:00:39;3.72;;;1.40;;
20170;SDS011;10245;51.344;6.620;2022-09-09T14:03:04;3.40;;;1.20;;
20170;SDS011;10245;51.344;6.620;2022-09-09T14:05:29;4.07;;;1.50;;
20170;SDS011;10245;51.344;6.620;2022-09-09T14:07:55;3.00;;;1.20;;
20170;SDS011;10245;51.344;6.620;2022-09-09T14:10:19;2.83;;;1.50;;
20170;SDS011;10245;51.344;6.620;2022-09-09T14:12:43;3.15;;;1.30;;
20170;SDS011;10245;51.344;6.620;2022-09-09T14:15:09;4.82;;;1.50;;
20170;SDS011;10245;51.344;6.620;2022-09-09T14:17:34;5.30;;;1.40;;
20170;SDS011;10245;51.344;6.620;2022-09-09T14:19:59;7.13;;;1.60;;
20170;SDS011;10245;51.344;6.620;2022-09-09T14:22:22;2.05;;;0.90;;
20170;SDS011;10245;51.344;6.620;2022-09-09T14:24:46;3.00;;;0.65;;
20170;SDS011;10245;51.344;6.620;2022-09-09T14:27:10;2.08;;;0.73;;
20170;SDS011;10245;51.344;6.620;2022-09-09T14:29:38;2.45;;;0.77;;
20170;SDS011;10245;51.344;6.620;2022-09-09T14:32:01;3.15;;;0.90;;
20170;SDS011;10245;51.344;6.620;2022-09-09T14:34:31;2.00;;;0.70;;
20170;SDS011;10245;51.344;6.620;2022-09-09T14:36:56;2.45;;;0.73;;
20170;SDS011;10245;51.344;6.620;2022-09-09T14:39:19;1.90;;;0.50;;
20170;SDS011;10245;51.344;6.620;2022-09-09T14:41:44;1.40;;;0.57;;
20170;SDS011;10245;51.344;6.620;2022-09-09T14:44:07;3.10;;;0.88;;
20170;SDS011;10245;51.344;6.620;2022-09-09T14:46:40;0.77;;;0.75;;
20170;SDS011;10245;51.344;6.620;2022-09-09T14:49:04;3.20;;;1.48;;
20170;SDS011;10245;51.344;6.620;2022-09-09T14:51:28;1.85;;;1.08;;
20170;SDS011;10245;51.344;6.620;2022-09-09T14:53:53;2.55;;;0.80;;
20170;SDS011;10245;51.344;6.620;2022-09-09T14:56:20;2.70;;;0.93;;
20170;SDS011;10245;51.344;6.620;2022-09-09T14:58:46;2.63;;;1.02;;
20170;SDS011;10245;51.344;6.620;2022-09-09T15:01:10;2.67;;;0.88;;